Terminal Aerodrome Forecast
Issued by NWS Cleveland, OH

Home | Current Version | Previous Version | Graphics & Text | Print | Product List | Glossary Off
Versions: 1 2 3 4 5 6 7 8 9 10 11 12 13 14 15 16 17

314
FTUS41 KCLE 250533
TAFERI
TAF
KERI 250533Z 2506/2606 VRB04KT 5SM -RA OVC045
      TEMPO 2508/2511 2SM -SHRA BR OVC015
     FM251100 09005KT 2SM -SHRA BR OVC015
      TEMPO 2511/2515 1SM -SHRA BR OVC008
     FM251500 35004KT 2SM -SHRA BR OVC010
     FM251800 29007KT 2SM BR OVC015
     FM252100 27008KT 5SM BR OVC020
     FM260400 31007KT P6SM BKN025=

USA.gov is the U.S. government's official web portal to all federal, state and local government web resources and services.